createdAt,value
2022-08-03T00:00:47.223Z,21.95818
2022-08-03T00:01:48.141Z,22.0324
2022-08-03T00:02:48.899Z,22.00195
2022-08-03T00:03:49.599Z,22.08918
2022-08-03T00:04:50.230Z,21.96738
2022-08-03T00:06:03.709Z,21.95882
2022-08-03T00:07:05.705Z,21.83036
2022-08-03T00:08:06.429Z,21.91759
2022-08-03T00:09:08.323Z,21.90204
2022-08-03T00:10:08.963Z,21.9547
2022-08-03T00:11:09.632Z,21.9547
2022-08-03T00:12:10.348Z,21.86589
2022-08-03T00:13:11.085Z,21.84178
2022-08-03T00:14:11.806Z,21.76344
2022-08-03T00:15:15.384Z,21.83195
2022-08-03T00:16:17.640Z,21.81165
2022-08-03T00:17:18.263Z,21.7923
2022-08-03T00:18:18.890Z,21.75424
2022-08-03T00:19:19.512Z,21.81799
2022-08-03T00:20:20.128Z,21.78818
2022-08-03T00:21:20.859Z,21.75329
2022-08-03T00:22:21.474Z,21.74219
2022-08-03T00:23:24.802Z,21.76185
2022-08-03T00:24:25.432Z,21.75932
2022-08-03T00:25:26.102Z,21.73077
2022-08-03T00:26:26.730Z,21.72823
2022-08-03T00:27:27.354Z,21.72887
2022-08-03T00:28:33.721Z,21.65941
2022-08-03T00:29:34.342Z,21.67717
2022-08-03T00:31:00.895Z,21.60358
2022-08-03T00:32:01.561Z,21.62547
2022-08-03T00:33:03.336Z,21.68224
2022-08-03T00:34:05.145Z,21.58677
2022-08-03T00:35:09.307Z,21.61278
2022-08-03T00:36:12.091Z,21.61151
2022-08-03T00:37:12.712Z,21.60073
2022-08-03T00:38:13.333Z,21.57313
2022-08-03T00:39:13.964Z,21.57504
2022-08-03T00:40:14.594Z,21.50431
2022-08-03T00:41:15.757Z,21.53222
2022-08-03T00:42:16.888Z,21.49416
2022-08-03T00:43:17.677Z,21.48242
2022-08-03T00:44:19.079Z,21.49796
2022-08-03T00:45:19.779Z,21.42216
2022-08-03T00:46:21.968Z,21.3527
2022-08-03T00:47:22.934Z,21.36824
2022-08-03T00:48:33.341Z,21.41994
2022-08-03T00:49:34.618Z,21.41264
2022-08-03T00:50:35.410Z,21.41899
2022-08-03T00:51:36.115Z,21.44595
2022-08-03T00:52:36.740Z,21.42438
2022-08-03T00:53:37.357Z,21.44341
2022-08-03T00:54:38.073Z,21.38251
2022-08-03T00:55:38.763Z,21.46212
2022-08-03T00:56:39.416Z,21.46561
2022-08-03T00:58:00.054Z,21.46149
2022-08-03T00:59:00.694Z,21.46974
2022-08-03T01:00:01.320Z,21.3822
2022-08-03T01:01:02.001Z,21.3546
2022-08-03T01:02:02.713Z,21.37395
2022-08-03T01:03:03.362Z,21.36919
2022-08-03T01:04:04.017Z,21.42057
2022-08-03T01:05:04.696Z,21.3435
2022-08-03T01:06:05.334Z,21.32257
2022-08-03T01:07:05.957Z,21.22773
2022-08-03T01:08:11.625Z,21.25437
2022-08-03T01:09:12.251Z,21.19348
2022-08-03T01:10:12.869Z,21.1551
2022-08-03T01:11:13.510Z,21.19316
2022-08-03T01:12:14.395Z,21.20458
2022-08-03T01:14:03.573Z,21.20077
2022-08-03T01:15:19.125Z,21.20585
2022-08-03T01:16:19.785Z,21.23693
2022-08-03T01:17:21.527Z,21.25691
2022-08-03T01:18:22.161Z,21.2512
2022-08-03T01:19:22.900Z,21.31464
2022-08-03T01:20:23.617Z,21.30163
2022-08-03T01:21:24.233Z,21.29497
2022-08-03T01:22:24.853Z,21.32066
2022-08-03T01:23:29.053Z,21.24645
2022-08-03T01:24:29.823Z,21.2068
2022-08-03T01:25:30.434Z,21.15605
2022-08-03T01:26:31.126Z,21.15732
2022-08-03T01:27:31.745Z,21.15669
2022-08-03T01:28:32.364Z,21.18111
2022-08-03T01:29:32.986Z,21.1218
2022-08-03T01:30:33.607Z,21.13639
2022-08-03T01:31:34.246Z,20.98256
2022-08-03T01:34:01.037Z,20.94957
2022-08-03T01:35:01.661Z,20.94101
2022-08-03T01:36:02.349Z,20.92674
2022-08-03T01:37:02.977Z,21
2022-08-03T01:38:03.586Z,21.03775
2022-08-03T01:39:04.782Z,20.97653
2022-08-03T01:40:05.402Z,20.89882
2022-08-03T01:41:06.012Z,20.83856
2022-08-03T01:42:06.626Z,20.77481
2022-08-03T01:43:07.230Z,20.84015
2022-08-03T01:44:28.013Z,20.72279
2022-08-03T01:45:33.927Z,20.73485
2022-08-03T01:46:34.915Z,20.65651
2022-08-03T01:47:35.545Z,20.62923
2022-08-03T01:48:36.193Z,20.67395
2022-08-03T01:49:36.836Z,20.66444
2022-08-03T01:50:37.502Z,20.65397
2022-08-03T01:51:58.470Z,20.6971
2022-08-03T01:53:05.323Z,20.79638
2022-08-03T01:54:06.015Z,20.79099
2022-08-03T01:55:06.635Z,20.67966
2022-08-03T01:56:07.275Z,20.69964
2022-08-03T01:57:07.884Z,20.61369
2022-08-03T01:58:08.500Z,20.71106
2022-08-03T01:59:09.155Z,20.64287
2022-08-03T02:00:09.744Z,20.6083
2022-08-03T02:01:10.697Z,20.55787
2022-08-03T02:02:28.703Z,20.52678
2022-08-03T02:03:34.515Z,20.55787
2022-08-03T02:04:35.167Z,20.49285
2022-08-03T02:05:35.897Z,20.44844
2022-08-03T02:07:01.711Z,20.50141
2022-08-03T02:08:03.255Z,20.53249
2022-08-03T02:09:03.965Z,20.4624
2022-08-03T02:10:04.625Z,20.53757
2022-08-03T02:11:05.239Z,20.60925
2022-08-03T02:12:05.855Z,20.62447
2022-08-03T02:13:06.478Z,20.70123
2022-08-03T02:14:07.153Z,20.72977
2022-08-03T02:15:07.795Z,20.69139
2022-08-03T02:16:08.531Z,20.76117
2022-08-03T02:17:09.149Z,20.70503
2022-08-03T02:18:09.864Z,20.69932
2022-08-03T02:19:10.485Z,20.67141
2022-08-03T02:20:11.230Z,20.65492
2022-08-03T02:21:11.844Z,20.64985
2022-08-03T02:22:56.804Z,20.56833
2022-08-03T02:23:57.523Z,20.57658
2022-08-03T02:24:58.244Z,20.57912
2022-08-03T02:25:59.850Z,20.5899
2022-08-03T02:27:00.923Z,20.6546
2022-08-03T02:28:01.579Z,20.70091
2022-08-03T02:29:02.267Z,20.67902
2022-08-03T02:30:03.581Z,20.6971
2022-08-03T02:31:04.225Z,20.68188
2022-08-03T02:32:04.861Z,20.70535
2022-08-03T02:33:05.472Z,20.70059
2022-08-03T02:34:06.089Z,20.70028
2022-08-03T02:35:06.691Z,20.72089
2022-08-03T02:36:07.326Z,20.71328
2022-08-03T02:37:07.935Z,20.64001
2022-08-03T02:38:08.575Z,20.64699
2022-08-03T02:39:09.182Z,20.65968
2022-08-03T02:40:09.801Z,20.74753
2022-08-03T02:41:10.444Z,20.77449
2022-08-03T02:42:12.246Z,20.79765
2022-08-03T02:43:13.534Z,20.77418
2022-08-03T02:44:14.154Z,20.8817
2022-08-03T02:45:14.897Z,20.88106
2022-08-03T02:46:15.513Z,20.83
2022-08-03T02:47:16.117Z,20.85918
2022-08-03T02:48:16.833Z,20.83793
2022-08-03T02:49:42.153Z,20.78084
2022-08-03T02:50:51.776Z,20.7358
2022-08-03T02:51:52.380Z,20.72153
2022-08-03T02:52:53.002Z,20.76815
2022-08-03T02:53:53.620Z,20.64889
2022-08-03T02:54:54.237Z,20.67776
2022-08-03T02:55:54.967Z,20.72946
2022-08-03T02:56:55.602Z,20.78972
2022-08-03T02:57:56.230Z,20.77798
2022-08-03T02:58:56.853Z,20.78084
2022-08-03T02:59:57.577Z,20.68061
2022-08-03T03:00:58.258Z,20.67205
2022-08-03T03:01:58.924Z,20.60893
2022-08-03T03:03:00.408Z,20.6397
2022-08-03T03:04:01.361Z,20.62637
2022-08-03T03:05:55.164Z,20.61749
2022-08-03T03:06:57.859Z,20.63716
2022-08-03T03:07:58.551Z,20.65524
2022-08-03T03:08:59.861Z,20.67427
2022-08-03T03:10:01.242Z,20.63177
2022-08-03T03:11:01.910Z,20.59402
2022-08-03T03:12:02.551Z,20.62637
2022-08-03T03:13:03.368Z,20.61337
2022-08-03T03:14:04.003Z,20.57721
2022-08-03T03:15:04.665Z,20.63367
2022-08-03T03:16:05.281Z,20.58927
2022-08-03T03:17:05.903Z,20.65397
2022-08-03T03:18:06.603Z,20.64033
2022-08-03T03:19:07.359Z,20.71772
2022-08-03T03:20:07.968Z,20.62859
2022-08-03T03:21:08.600Z,20.61274
2022-08-03T03:22:09.315Z,20.58546
2022-08-03T03:23:10.009Z,20.62098
2022-08-03T03:24:10.751Z,20.58229
2022-08-03T03:25:11.382Z,20.58229
2022-08-03T03:26:11.999Z,20.59275
2022-08-03T03:27:16.560Z,20.61464
2022-08-03T03:28:17.559Z,20.56167
2022-08-03T03:29:18.255Z,20.47382
2022-08-03T03:30:18.878Z,20.48555
2022-08-03T03:31:19.578Z,20.47889
2022-08-03T03:32:20.205Z,20.49697
2022-08-03T03:33:20.831Z,20.46716
2022-08-03T03:34:21.454Z,20.57372
2022-08-03T03:35:23.702Z,20.62193
2022-08-03T03:36:24.341Z,20.52869
2022-08-03T03:37:24.953Z,20.529
2022-08-03T03:38:25.582Z,20.61845
2022-08-03T03:39:26.301Z,20.4532
2022-08-03T03:40:26.932Z,20.46081
2022-08-03T03:41:27.641Z,20.4735
2022-08-03T03:42:34.549Z,20.51885
2022-08-03T03:43:35.173Z,20.55406
2022-08-03T03:44:35.799Z,20.51473
2022-08-03T03:45:36.422Z,20.51092
2022-08-03T03:46:37.048Z,20.51568
2022-08-03T03:47:37.666Z,20.51695
2022-08-03T03:48:38.275Z,20.49348
2022-08-03T03:49:41.689Z,20.58356
2022-08-03T03:50:42.409Z,20.55882
2022-08-03T03:51:43.153Z,20.58927
2022-08-03T03:52:43.875Z,20.5604
2022-08-03T03:53:44.579Z,20.61749
2022-08-03T03:54:45.749Z,20.67014
2022-08-03T03:55:57.928Z,20.66856
2022-08-03T03:57:02.467Z,20.64001
2022-08-03T03:58:03.095Z,20.61305
2022-08-03T03:59:03.718Z,20.69425
2022-08-03T04:00:04.378Z,20.59117
2022-08-03T04:01:05.085Z,20.6638
2022-08-03T04:02:05.749Z,20.60734
2022-08-03T04:03:06.493Z,20.60608
2022-08-03T04:04:08.923Z,20.54581
2022-08-03T04:05:09.540Z,20.53979
2022-08-03T04:06:10.185Z,20.48174
2022-08-03T04:07:10.855Z,20.47667
2022-08-03T04:08:11.480Z,20.44051
2022-08-03T04:09:12.112Z,20.47318
2022-08-03T04:10:14.414Z,20.4551
2022-08-03T04:11:15.321Z,20.49507
2022-08-03T04:12:16.309Z,20.42402
2022-08-03T04:13:17.062Z,20.4716
2022-08-03T04:14:17.693Z,20.516
2022-08-03T04:15:18.914Z,20.56992
2022-08-03T04:16:19.531Z,20.58451
2022-08-03T04:17:20.156Z,20.60544
2022-08-03T04:18:21.381Z,20.66729
2022-08-03T04:19:23.484Z,20.62764
2022-08-03T04:20:24.248Z,20.59497
2022-08-03T04:21:24.931Z,20.601
2022-08-03T04:22:25.543Z,20.63621
2022-08-03T04:23:26.152Z,20.66317
2022-08-03T04:24:26.787Z,20.62669
2022-08-03T04:25:27.804Z,20.70503
2022-08-03T04:26:28.420Z,20.68061
2022-08-03T04:27:29.044Z,20.62701
2022-08-03T04:28:31.847Z,20.67078
2022-08-03T04:29:32.871Z,20.6397
2022-08-03T04:30:34.132Z,20.67458
2022-08-03T04:31:34.849Z,20.71645
2022-08-03T04:32:35.569Z,20.75737
2022-08-03T04:33:36.282Z,20.69742
2022-08-03T04:34:37.218Z,20.79828
2022-08-03T04:35:54.749Z,20.84681
2022-08-03T04:37:03.854Z,20.9261
2022-08-03T04:38:04.499Z,20.77037
2022-08-03T04:39:05.129Z,20.7044
2022-08-03T04:40:05.751Z,20.66475
2022-08-03T04:41:06.439Z,20.65555
2022-08-03T04:42:08.918Z,20.673
2022-08-03T04:43:09.835Z,20.65524
2022-08-03T04:44:10.456Z,20.64255
2022-08-03T04:45:11.074Z,20.56453
2022-08-03T04:46:11.694Z,20.60005
2022-08-03T04:47:12.314Z,20.57309
2022-08-03T04:48:12.923Z,20.5087
2022-08-03T04:49:13.646Z,20.47413
2022-08-03T04:50:18.211Z,20.46493
2022-08-03T04:51:22.002Z,20.45288
2022-08-03T04:52:22.701Z,20.52742
2022-08-03T04:53:23.341Z,20.59846
2022-08-03T04:54:24.038Z,20.48967
2022-08-03T04:55:24.680Z,20.51124
2022-08-03T04:56:25.398Z,20.46493
2022-08-03T04:57:26.016Z,20.49919
2022-08-03T04:58:26.720Z,20.59149
2022-08-03T04:59:27.342Z,20.57912
2022-08-03T05:00:28.062Z,20.60354
2022-08-03T05:01:28.833Z,20.64889
2022-08-03T05:02:29.561Z,20.70503
2022-08-03T05:03:30.191Z,20.72755
2022-08-03T05:04:30.800Z,20.7967
2022-08-03T05:05:48.992Z,20.89407
2022-08-03T05:06:54.954Z,20.93847
2022-08-03T05:07:56.020Z,20.96067
2022-08-03T05:08:56.645Z,21.02316
2022-08-03T05:10:01.751Z,21.02347
2022-08-03T05:11:03.981Z,21.15795
2022-08-03T05:12:04.710Z,21.21441
2022-08-03T05:13:05.332Z,21.17191
2022-08-03T05:14:05.968Z,21.31115
2022-08-03T05:15:06.672Z,21.35302
2022-08-03T05:16:07.290Z,21.39964
2022-08-03T05:17:07.918Z,21.5227
2022-08-03T05:18:13.695Z,21.59787
2022-08-03T05:19:14.979Z,21.61151
2022-08-03T05:20:18.861Z,21.6464
2022-08-03T05:21:19.935Z,21.77422
2022-08-03T05:22:20.585Z,21.74631
2022-08-03T05:23:21.210Z,21.77613
2022-08-03T05:24:21.827Z,21.79198
2022-08-03T05:25:27.321Z,21.87667
2022-08-03T05:26:28.111Z,21.83924
2022-08-03T05:27:28.751Z,21.67844
2022-08-03T05:28:29.381Z,21.70381
2022-08-03T05:29:29.998Z,21.60707
2022-08-03T05:30:33.888Z,21.58931
2022-08-03T05:31:35.132Z,21.57218
2022-08-03T05:32:35.843Z,21.51985
2022-08-03T05:33:36.469Z,21.51604
2022-08-03T05:34:37.085Z,21.50558
2022-08-03T05:36:00.784Z,21.47862
2022-08-03T05:37:04.514Z,21.49892
2022-08-03T05:38:05.172Z,21.48433
2022-08-03T05:39:06.512Z,21.45768
2022-08-03T05:40:07.243Z,21.4691
2022-08-03T05:41:22.905Z,21.58487
2022-08-03T05:42:24.620Z,21.60485
2022-08-03T05:43:25.244Z,21.57853
2022-08-03T05:44:25.851Z,21.56679
2022-08-03T05:45:28.402Z,21.54586
2022-08-03T05:46:29.460Z,21.61119
2022-08-03T05:47:30.072Z,21.41772
2022-08-03T05:48:30.691Z,21.52429
2022-08-03T05:49:31.332Z,21.56552
2022-08-03T05:50:33.358Z,21.54681
2022-08-03T05:51:33.962Z,21.53951
2022-08-03T05:52:34.570Z,21.49384
2022-08-03T05:53:35.450Z,21.52397
2022-08-03T05:54:57.387Z,21.49162
2022-08-03T05:56:02.364Z,21.51731
2022-08-03T05:57:15.472Z,21.45863
2022-08-03T05:58:16.077Z,21.44912
2022-08-03T05:59:37.740Z,21.50684
2022-08-03T06:00:39.180Z,21.42977
2022-08-03T06:01:39.828Z,21.52302
2022-08-03T06:02:40.479Z,21.43802
2022-08-03T06:03:41.070Z,21.48274
2022-08-03T06:04:41.691Z,21.48496
2022-08-03T06:05:43.413Z,21.44944
2022-08-03T06:07:00.531Z,21.47608
2022-08-03T06:08:01.175Z,21.55918
2022-08-03T06:09:01.829Z,21.63118
2022-08-03T06:10:34.943Z,21.67209
2022-08-03T06:11:38.832Z,21.67368
2022-08-03T06:12:39.508Z,21.65845
2022-08-03T06:13:40.129Z,21.74092
2022-08-03T06:14:40.748Z,21.75265
2022-08-03T06:15:41.379Z,21.75424
2022-08-03T06:16:42.013Z,21.80023
2022-08-03T06:17:42.629Z,21.80245
2022-08-03T06:18:43.329Z,21.78818
2022-08-03T06:19:44.632Z,21.69366
2022-08-03T06:20:45.258Z,21.74441
2022-08-03T06:21:47.933Z,21.64133
2022-08-03T06:22:50.679Z,21.67146
2022-08-03T06:23:54.619Z,21.76851
2022-08-03T06:24:56.078Z,21.83575
2022-08-03T06:25:58.000Z,21.83227
2022-08-03T06:26:58.628Z,21.87128
2022-08-03T06:27:59.375Z,21.82592
2022-08-03T06:29:00.097Z,21.90775
2022-08-03T06:30:04.730Z,21.99085
2022-08-03T06:31:06.510Z,22.08188
2022-08-03T06:32:07.400Z,22.06888
2022-08-03T06:33:08.293Z,22.10218
2022-08-03T06:34:33.510Z,22.09933
2022-08-03T06:35:35.997Z,22.13358
2022-08-03T06:36:37.572Z,22.10155
2022-08-03T06:37:38.190Z,21.92678
2022-08-03T06:38:38.814Z,21.9585
2022-08-03T06:39:39.438Z,21.98768
2022-08-03T06:40:40.064Z,21.90522
2022-08-03T06:41:44.682Z,21.9696
2022-08-03T06:42:45.697Z,21.9252
2022-08-03T06:44:03.350Z,21.98736
2022-08-03T06:45:05.072Z,21.96484
2022-08-03T06:46:05.776Z,21.82909
2022-08-03T06:47:06.471Z,21.8754
2022-08-03T06:48:07.094Z,21.96833
2022-08-03T06:49:07.821Z,22.05714
2022-08-03T06:50:14.250Z,22.0803
2022-08-03T06:51:18.165Z,22.09647
2022-08-03T06:52:38.109Z,22.07459
2022-08-03T06:53:39.330Z,22.10821
2022-08-03T06:54:39.938Z,22.16625
2022-08-03T06:55:42.274Z,22.31659
2022-08-03T06:56:43.184Z,22.40889
2022-08-03T06:57:43.917Z,22.45393
2022-08-03T06:58:44.634Z,22.51324
2022-08-03T07:00:09.729Z,22.5069
2022-08-03T07:01:12.602Z,22.5716
2022-08-03T07:02:16.068Z,22.6306
2022-08-03T07:03:20.107Z,22.75588
2022-08-03T07:04:20.721Z,22.75017
2022-08-03T07:05:21.342Z,22.5494
2022-08-03T07:06:21.976Z,22.46884
2022-08-03T07:07:22.673Z,22.40001
2022-08-03T07:08:33.600Z,22.37051
2022-08-03T07:09:35.221Z,22.36988
2022-08-03T07:10:35.856Z,22.24872
2022-08-03T07:11:37.038Z,22.21319
2022-08-03T07:12:37.767Z,22.17767
2022-08-03T07:13:56.408Z,22.09901
2022-08-03T07:15:00.734Z,21.85796
2022-08-03T07:16:02.653Z,21.89443
2022-08-03T07:17:04.611Z,21.91251
2022-08-03T07:18:12.552Z,21.88397
2022-08-03T07:19:13.178Z,21.88841
2022-08-03T07:20:13.788Z,21.85256
2022-08-03T07:21:14.412Z,21.79198
2022-08-03T07:22:15.201Z,21.86842
2022-08-03T07:23:18.963Z,21.95089
2022-08-03T07:24:20.079Z,21.90807
2022-08-03T07:25:20.726Z,21.86906
2022-08-03T07:26:21.366Z,21.82751
2022-08-03T07:27:21.988Z,21.77517
2022-08-03T07:28:22.610Z,21.80213
2022-08-03T07:29:23.262Z,21.87572
2022-08-03T07:30:23.965Z,21.87477
2022-08-03T07:31:25.250Z,21.74853
2022-08-03T07:32:25.880Z,21.56076
2022-08-03T07:33:26.540Z,21.30449
2022-08-03T07:34:27.267Z,21.10499
2022-08-03T07:35:27.898Z,20.81446
2022-08-03T07:36:28.538Z,20.66253
2022-08-03T07:37:29.158Z,20.49951
2022-08-03T07:38:29.804Z,20.50966
2022-08-03T07:39:30.430Z,20.20612
2022-08-03T07:40:31.681Z,20.17917
2022-08-03T07:41:32.817Z,20.01868
2022-08-03T07:42:33.446Z,19.96634
2022-08-03T07:43:34.076Z,19.96603
2022-08-03T07:44:34.705Z,19.99013
2022-08-03T07:45:35.435Z,20.0875
2022-08-03T07:46:36.066Z,20.08179
2022-08-03T07:47:36.776Z,20.17631
2022-08-03T07:48:37.392Z,20.09575
2022-08-03T07:49:38.315Z,20.11351
2022-08-03T07:50:38.982Z,20.08497
2022-08-03T07:51:39.675Z,20.15379
2022-08-03T07:52:40.298Z,20.02217
2022-08-03T07:53:47.215Z,19.89942
2022-08-03T07:54:48.667Z,20.08655
2022-08-03T07:55:49.283Z,20.21152
2022-08-03T07:56:49.944Z,20.30889
2022-08-03T07:57:50.566Z,20.12842
2022-08-03T07:58:51.187Z,20.07577
2022-08-03T08:00:01.408Z,20.09258
2022-08-03T08:01:02.841Z,20.15474
2022-08-03T08:02:03.623Z,20.13032
2022-08-03T08:03:04.273Z,20.19661
2022-08-03T08:04:04.921Z,20.32348
2022-08-03T08:05:06.007Z,20.39135
2022-08-03T08:06:07.056Z,20.22928
2022-08-03T08:07:09.807Z,20.32316
2022-08-03T08:08:10.736Z,20.37866
2022-08-03T08:09:11.365Z,20.40975
2022-08-03T08:10:11.984Z,20.47572
2022-08-03T08:11:13.604Z,20.42212
2022-08-03T08:12:16.113Z,20.18836
2022-08-03T08:13:17.046Z,20.23784
2022-08-03T08:14:17.675Z,20.17917
2022-08-03T08:15:18.295Z,19.99743
2022-08-03T08:16:18.925Z,20.06245
2022-08-03T08:17:19.533Z,20.06879
2022-08-03T08:18:20.149Z,20.02566
2022-08-03T08:19:20.761Z,20.05071
2022-08-03T08:20:30.718Z,20.04881
2022-08-03T08:21:53.901Z,20.06308
2022-08-03T08:23:03.622Z,20.1725
2022-08-03T08:24:20.476Z,20.28954
2022-08-03T08:25:21.270Z,20.27368
2022-08-03T08:26:21.993Z,20.31967
2022-08-03T08:27:22.614Z,20.33109
2022-08-03T08:28:30.081Z,20.34536
2022-08-03T08:29:32.806Z,20.3885
2022-08-03T08:30:33.448Z,20.39865
2022-08-03T08:31:36.387Z,20.36027
2022-08-03T08:32:37.019Z,20.36059
2022-08-03T08:34:02.608Z,20.3885
2022-08-03T08:35:03.661Z,20.45098
2022-08-03T08:36:04.277Z,20.48174
2022-08-03T08:37:04.899Z,20.54772
2022-08-03T08:38:05.920Z,20.65397
2022-08-03T08:39:06.624Z,20.67332
2022-08-03T08:40:07.249Z,20.59688
2022-08-03T08:41:07.895Z,20.60449
2022-08-03T08:42:08.550Z,20.68695
2022-08-03T08:43:09.199Z,20.75895
2022-08-03T08:44:09.813Z,20.74024
2022-08-03T08:45:10.465Z,20.81002
2022-08-03T08:46:11.165Z,20.80145
2022-08-03T08:47:11.900Z,20.79226
2022-08-03T08:48:12.608Z,20.78877
2022-08-03T08:49:13.380Z,20.86616
2022-08-03T08:50:27.379Z,20.83698
2022-08-03T08:51:54.569Z,20.80209
2022-08-03T08:53:01.690Z,20.89851
2022-08-03T08:54:02.324Z,20.89248
2022-08-03T08:55:02.976Z,20.90675
2022-08-03T08:56:03.623Z,20.86394
2022-08-03T08:57:12.474Z,20.89375
2022-08-03T08:58:27.341Z,20.80589
2022-08-03T08:59:27.971Z,20.74658
2022-08-03T09:00:49.441Z,20.79289
2022-08-03T09:01:50.187Z,20.82175
2022-08-03T09:02:50.934Z,20.86267
2022-08-03T09:03:51.641Z,20.82397
2022-08-03T09:04:52.354Z,20.85442
2022-08-03T09:05:56.031Z,20.89502
2022-08-03T09:07:18.655Z,20.95972
2022-08-03T09:08:20.635Z,21.07232
2022-08-03T09:10:10.543Z,21.04219
2022-08-03T09:11:13.142Z,21.18967
2022-08-03T09:12:37.175Z,21.2474
2022-08-03T09:13:41.548Z,21.11577
2022-08-03T09:15:00.749Z,21.21917
2022-08-03T09:16:08.430Z,21.22868
2022-08-03T09:17:17.108Z,21.19379
2022-08-03T09:18:18.382Z,21.22393
2022-08-03T09:19:19.009Z,21.28292
2022-08-03T09:20:19.632Z,21.33589
2022-08-03T09:21:30.501Z,21.19031
2022-08-03T09:22:32.092Z,20.91659
2022-08-03T09:23:59.755Z,20.92071
2022-08-03T09:25:22.704Z,21.04536
2022-08-03T09:26:24.336Z,21.24676
2022-08-03T09:27:26.169Z,21.39457
2022-08-03T09:28:53.889Z,21.49162
2022-08-03T09:30:02.581Z,21.4764
2022-08-03T09:31:03.381Z,21.30354
2022-08-03T09:32:04.008Z,21.42914
2022-08-03T09:33:04.743Z,21.4561
2022-08-03T09:34:05.372Z,21.56679
2022-08-03T09:35:06.006Z,21.71872
2022-08-03T09:36:10.104Z,21.73553
2022-08-03T09:37:10.720Z,21.83195
2022-08-03T09:38:14.118Z,21.92869
2022-08-03T09:39:15.029Z,21.9493
2022-08-03T09:40:15.714Z,21.81609
2022-08-03T09:41:16.549Z,21.87572
2022-08-03T09:42:17.307Z,21.80975
2022-08-03T09:43:19.120Z,21.90934
2022-08-03T09:44:25.857Z,21.91061
2022-08-03T09:45:27.000Z,21.89063
2022-08-03T09:46:27.666Z,21.85542
2022-08-03T09:47:28.488Z,21.82592
2022-08-03T09:48:29.140Z,21.91663
2022-08-03T09:49:29.813Z,22.01781
2022-08-03T09:50:30.463Z,22.10186
2022-08-03T09:51:33.050Z,22.08474
2022-08-03T09:53:34.253Z,22.23857
2022-08-03T09:54:34.875Z,22.33943
2022-08-03T09:56:33.720Z,22.44886
2022-08-03T09:57:36.490Z,22.76889
2022-08-03T09:58:37.113Z,22.86563
2022-08-03T09:59:39.158Z,22.96427
2022-08-03T10:00:41.992Z,22.92653
2022-08-03T10:01:42.775Z,22.92272
2022-08-03T10:02:43.701Z,23.08385
2022-08-03T10:04:03.163Z,23.27542
2022-08-03T10:05:05.212Z,23.40039
2022-08-03T10:06:05.941Z,23.46034
2022-08-03T10:07:06.574Z,23.76515
2022-08-03T10:08:07.198Z,23.83176
2022-08-03T10:09:07.850Z,23.88409
2022-08-03T10:10:29.347Z,23.71282
2022-08-03T10:11:34.343Z,23.36328
2022-08-03T10:12:42.261Z,23.13364
2022-08-03T10:13:42.883Z,23.15997
2022-08-03T10:14:43.517Z,23.10954
2022-08-03T10:16:21.709Z,22.96395
2022-08-03T10:17:25.776Z,22.85009
2022-08-03T10:18:26.391Z,22.91035
2022-08-03T10:19:27.151Z,23.09495
2022-08-03T10:20:27.773Z,23.4467
2022-08-03T10:21:28.398Z,23.53202
2022-08-03T10:22:29.031Z,23.64335
2022-08-03T10:23:33.545Z,24.0595
2022-08-03T10:24:34.874Z,24.43377
2022-08-03T10:25:35.530Z,24.65326
2022-08-03T10:26:36.148Z,24.82486
2022-08-03T10:27:36.772Z,24.68974
2022-08-03T10:28:41.455Z,24.65771
2022-08-03T10:29:45.162Z,24.46295
2022-08-03T10:30:45.874Z,24.1426
2022-08-03T10:31:57.328Z,24.20762
2022-08-03T10:32:59.082Z,24.00748
2022-08-03T10:33:59.823Z,23.73534
2022-08-03T10:35:04.162Z,23.84445
2022-08-03T10:36:20.457Z,23.64589
2022-08-03T10:37:22.000Z,23.80512
2022-08-03T10:38:22.655Z,24.02936
2022-08-03T10:39:23.279Z,24.26281
2022-08-03T10:40:47.659Z,24.36907
2022-08-03T10:41:49.976Z,24.30944
2022-08-03T10:42:50.640Z,24.52798
2022-08-03T10:43:51.270Z,24.81535
2022-08-03T10:44:51.989Z,24.72749
2022-08-03T10:45:52.729Z,24.52132
2022-08-03T10:46:53.440Z,24.2977
2022-08-03T10:47:54.983Z,24.40935
2022-08-03T10:48:55.657Z,24.49277
2022-08-03T10:49:56.358Z,24.65485
2022-08-03T10:50:57.048Z,24.25076
2022-08-03T10:51:57.791Z,24.46232
2022-08-03T10:52:58.419Z,24.21048
2022-08-03T10:54:02.710Z,24.06362
2022-08-03T10:55:07.613Z,23.96656
2022-08-03T10:56:10.853Z,24.02683
2022-08-03T10:57:14.270Z,23.89361
2022-08-03T10:58:15.370Z,23.81717
2022-08-03T10:59:31.329Z,23.99352
2022-08-03T11:00:32.033Z,23.82637
2022-08-03T11:01:55.049Z,23.7236
2022-08-03T11:03:00.290Z,23.89202
2022-08-03T11:04:00.949Z,24.0928
2022-08-03T11:05:01.590Z,24.01065
2022-08-03T11:06:02.275Z,24.10961
2022-08-03T11:07:02.904Z,24.03856
2022-08-03T11:08:03.535Z,23.87331
2022-08-03T11:09:04.147Z,23.98718
2022-08-03T11:10:10.222Z,24.18764
2022-08-03T11:11:11.217Z,24.32339
2022-08-03T11:12:11.840Z,24.5302
2022-08-03T11:13:14.830Z,24.62948
2022-08-03T11:14:17.669Z,24.43568
2022-08-03T11:15:18.288Z,24.58983
2022-08-03T11:16:21.876Z,24.80361
2022-08-03T11:17:22.969Z,24.87974
2022-08-03T11:18:27.121Z,24.88957
2022-08-03T11:19:27.938Z,24.92922
2022-08-03T11:20:28.890Z,24.80107
2022-08-03T11:21:30.490Z,24.46739
2022-08-03T11:22:31.221Z,24.57365
2022-08-03T11:24:03.384Z,24.64121
2022-08-03T11:25:06.862Z,24.94603
2022-08-03T11:26:07.478Z,24.67071
2022-08-03T11:27:08.093Z,24.55779
2022-08-03T11:28:08.749Z,24.72939
2022-08-03T11:29:09.468Z,24.71194
2022-08-03T11:30:10.246Z,24.41157
2022-08-03T11:31:27.087Z,24.40332
2022-08-03T11:32:40.146Z,24.46073
2022-08-03T11:33:47.277Z,24.69513
2022-08-03T11:34:47.919Z,24.67515
2022-08-03T11:35:48.546Z,24.82803
2022-08-03T11:36:49.166Z,24.86388
2022-08-03T11:38:03.289Z,24.97077
2022-08-03T11:39:05.824Z,25.05641
2022-08-03T11:40:06.451Z,25.14554
2022-08-03T11:41:07.086Z,25.16933
2022-08-03T11:42:07.710Z,25.05768
2022-08-03T11:43:08.336Z,24.89084
2022-08-03T11:44:08.991Z,24.52005
2022-08-03T11:45:09.609Z,24.4582
2022-08-03T11:46:10.240Z,24.46327
2022-08-03T11:47:10.855Z,24.51402
2022-08-03T11:48:11.492Z,24.63741
2022-08-03T11:49:12.278Z,24.37985
2022-08-03T11:50:12.938Z,24.4122
2022-08-03T11:51:13.566Z,24.50387
2022-08-03T11:52:14.409Z,24.4934
2022-08-03T11:53:15.044Z,24.45122
2022-08-03T11:54:15.925Z,24.66373
2022-08-03T11:55:16.553Z,24.88766
2022-08-03T11:56:17.190Z,25.05324
2022-08-03T11:57:18.032Z,25.13348
2022-08-03T12:00:02.545Z,25.1614
2022-08-03T12:01:03.264Z,25.01359
2022-08-03T12:02:03.890Z,25.18265
2022-08-03T12:03:04.646Z,25.37233
2022-08-03T12:04:05.387Z,25.28098
2022-08-03T12:05:06.031Z,25.4291
2022-08-03T12:06:06.650Z,25.43386
2022-08-03T12:07:07.275Z,25.61212
2022-08-03T12:08:07.891Z,25.77896
2022-08-03T12:09:08.535Z,25.87824
2022-08-03T12:10:16.188Z,25.70315
2022-08-03T12:11:16.832Z,25.66319
2022-08-03T12:12:17.451Z,25.57184
2022-08-03T12:14:08.386Z,25.20263
2022-08-03T12:15:48.109Z,25.60038
2022-08-03T12:16:48.827Z,25.76786
2022-08-03T12:17:49.453Z,25.42498
2022-08-03T12:18:50.080Z,25.2832
2022-08-03T12:19:50.796Z,25.30825
2022-08-03T12:20:51.523Z,25.08686
2022-08-03T12:21:57.339Z,25.10684
2022-08-03T12:22:58.391Z,25.04689
2022-08-03T12:23:59.756Z,25.18645
2022-08-03T12:25:00.452Z,25.37455
2022-08-03T12:26:01.065Z,25.68507
2022-08-03T12:27:03.337Z,25.85414
2022-08-03T12:28:03.969Z,25.91694
2022-08-03T12:29:32.576Z,25.76183